sensor_id;sensor_type;location;lat;lon;timestamp;pressure;altitude;pressure_sealevel;temperature;humidity
21781;BME280;52576;53.614;9.894;2022-09-09T00:00:24;100363.41;;;14.56;100.00
21781;BME280;52576;53.614;9.894;2022-09-09T00:01:36;100369.38;;;14.58;100.00
21781;BME280;52576;53.614;9.894;2022-09-09T00:02:41;100366.44;;;14.59;100.00
21781;BME280;52576;53.614;9.894;2022-09-09T00:03:53;100367.03;;;14.61;100.00
21781;BME280;52576;53.614;9.894;2022-09-09T00:05:04;100357.31;;;14.60;100.00
21781;BME280;52576;53.614;9.894;2022-09-09T00:06:21;100353.81;;;14.60;100.00
21781;BME280;52576;53.614;9.894;2022-09-09T00:07:36;100354.63;;;14.60;100.00
21781;BME280;52576;53.614;9.894;2022-09-09T00:08:49;100353.81;;;14.60;100.00
21781;BME280;52576;53.614;9.894;2022-09-09T00:10:00;100358.97;;;14.61;100.00
21781;BME280;52576;53.614;9.894;2022-09-09T00:11:05;100355.19;;;14.62;100.00
21781;BME280;52576;53.614;9.894;2022-09-09T00:12:13;100354.38;;;14.62;100.00
21781;BME280;52576;53.614;9.894;2022-09-09T00:13:20;100357.88;;;14.62;100.00
21781;BME280;52576;53.614;9.894;2022-09-09T00:14:33;100361.16;;;14.64;100.00
21781;BME280;52576;53.614;9.894;2022-09-09T00:15:41;100366.53;;;14.64;100.00
21781;BME280;52576;53.614;9.894;2022-09-09T00:16:50;100359.84;;;14.67;100.00
21781;BME280;52576;53.614;9.894;2022-09-09T00:17:58;100361.75;;;14.66;100.00
21781;BME280;52576;53.614;9.894;2022-09-09T00:19:07;100360.91;;;14.66;100.00
21781;BME280;52576;53.614;9.894;2022-09-09T00:20:19;100361.50;;;14.68;100.00
21781;BME280;52576;53.614;9.894;2022-09-09T00:21:26;100353.44;;;14.68;100.00
21781;BME280;52576;53.614;9.894;2022-09-09T00:22:36;100361.03;;;14.71;100.00
21781;BME280;52576;53.614;9.894;2022-09-09T00:23:44;100359.16;;;14.71;100.00
21781;BME280;52576;53.614;9.894;2022-09-09T00:24:52;100359.94;;;14.72;100.00
21781;BME280;52576;53.614;9.894;2022-09-09T00:26:02;100360.19;;;14.70;100.00
21781;BME280;52576;53.614;9.894;2022-09-09T00:27:10;100360.44;;;14.69;100.00
21781;BME280;52576;53.614;9.894;2022-09-09T00:28:18;100361.59;;;14.73;100.00
21781;BME280;52576;53.614;9.894;2022-09-09T00:29:26;100360.78;;;14.72;100.00
21781;BME280;52576;53.614;9.894;2022-09-09T00:30:34;100359.94;;;14.72;100.00
21781;BME280;52576;53.614;9.894;2022-09-09T00:31:38;100361.59;;;14.73;100.00
21781;BME280;52576;53.614;9.894;2022-09-09T00:32:40;100355.38;;;14.72;100.00
21781;BME280;52576;53.614;9.894;2022-09-09T00:33:44;100353.53;;;14.73;100.00
21781;BME280;52576;53.614;9.894;2022-09-09T00:34:49;100358.09;;;14.72;100.00
21781;BME280;52576;53.614;9.894;2022-09-09T00:35:57;100360.53;;;14.74;100.00
21781;BME280;52576;53.614;9.894;2022-09-09T00:37:00;100362.44;;;14.73;100.00
21781;BME280;52576;53.614;9.894;2022-09-09T00:38:12;100348.03;;;14.68;100.00
21781;BME280;52576;53.614;9.894;2022-09-09T00:39:24;100355.16;;;14.74;100.00
21781;BME280;52576;53.614;9.894;2022-09-09T00:40:32;100353.53;;;14.73;100.00
21781;BME280;52576;53.614;9.894;2022-09-09T00:41:44;100356.78;;;14.75;100.00
21781;BME280;52576;53.614;9.894;2022-09-09T00:43:02;100362.19;;;14.75;100.00
21781;BME280;52576;53.614;9.894;2022-09-09T00:44:19;100358.91;;;14.73;100.00
21781;BME280;52576;53.614;9.894;2022-09-09T00:45:42;100356.78;;;14.75;100.00
21781;BME280;52576;53.614;9.894;2022-09-09T00:47:19;100358.66;;;14.74;100.00
21781;BME280;52576;53.614;9.894;2022-09-09T00:48:32;100357.59;;;14.75;100.00
21781;BME280;52576;53.614;9.894;2022-09-09T00:49:45;100358.41;;;14.76;100.00
21781;BME280;52576;53.614;9.894;2022-09-09T00:50:56;100354.66;;;14.77;100.00
21781;BME280;52576;53.614;9.894;2022-09-09T00:52:04;100348.47;;;14.76;100.00
21781;BME280;52576;53.614;9.894;2022-09-09T00:53:27;100354.66;;;14.77;100.00
21781;BME280;52576;53.614;9.894;2022-09-09T00:54:43;100352.78;;;14.77;100.00
21781;BME280;52576;53.614;9.894;2022-09-09T00:55:50;100350.94;;;14.78;100.00
21781;BME280;52576;53.614;9.894;2022-09-09T00:57:05;100347.91;;;14.74;100.00
21781;BME280;52576;53.614;9.894;2022-09-09T00:58:09;100351.97;;;14.77;100.00
21781;BME280;52576;53.614;9.894;2022-09-09T00:59:21;100355.47;;;14.77;100.00
21781;BME280;52576;53.614;9.894;2022-09-09T01:00:31;100361.69;;;14.78;100.00
21781;BME280;52576;53.614;9.894;2022-09-09T01:01:38;100365.22;;;14.78;100.00
21781;BME280;52576;53.614;9.894;2022-09-09T01:02:46;100363.31;;;14.79;100.00
21781;BME280;52576;53.614;9.894;2022-09-09T01:03:56;100352.53;;;14.79;100.00
21781;BME280;52576;53.614;9.894;2022-09-09T01:05:06;100347.16;;;14.79;100.00
21781;BME280;52576;53.614;9.894;2022-09-09T01:06:16;100348.81;;;14.80;100.00
21781;BME280;52576;53.614;9.894;2022-09-09T01:07:23;100353.38;;;14.79;100.00
21781;BME280;52576;53.614;9.894;2022-09-09T01:08:50;100335.41;;;14.68;100.00
21781;BME280;52576;53.614;9.894;2022-09-09T01:09:57;100348.81;;;14.80;100.00
21781;BME280;52576;53.614;9.894;2022-09-09T01:11:01;100354.19;;;14.80;100.00
21781;BME280;52576;53.614;9.894;2022-09-09T01:12:09;100354.44;;;14.78;100.00
21781;BME280;52576;53.614;9.894;2022-09-09T01:13:19;100354.66;;;14.77;100.00
21781;BME280;52576;53.614;9.894;2022-09-09T01:14:38;100345.53;;;14.78;100.00
21781;BME280;52576;53.614;9.894;2022-09-09T01:15:44;100360.03;;;14.77;100.00
21781;BME280;52576;53.614;9.894;2022-09-09T01:16:49;100349.50;;;14.75;100.00
21781;BME280;52576;53.614;9.894;2022-09-09T01:17:59;100352.44;;;14.74;100.00
21781;BME280;52576;53.614;9.894;2022-09-09T01:19:07;100352.69;;;14.72;100.00
21781;BME280;52576;53.614;9.894;2022-09-09T01:20:14;100352.34;;;14.69;100.00
21781;BME280;52576;53.614;9.894;2022-09-09T01:21:35;100351.56;;;14.68;100.00
21781;BME280;52576;53.614;9.894;2022-09-09T01:22:44;100336.03;;;14.59;100.00
21781;BME280;52576;53.614;9.894;2022-09-09T01:24:12;100354.16;;;14.63;100.00
21781;BME280;52576;53.614;9.894;2022-09-09T01:26:15;100349.47;;;14.59;100.00
21781;BME280;52576;53.614;9.894;2022-09-09T01:27:21;100357.78;;;14.57;100.00
21781;BME280;52576;53.614;9.894;2022-09-09T01:28:27;100356.41;;;14.55;100.00
21781;BME280;52576;53.614;9.894;2022-09-09T01:29:36;100351.47;;;14.52;100.00
21781;BME280;52576;53.614;9.894;2022-09-09T01:30:41;100350.94;;;14.50;100.00
21781;BME280;52576;53.614;9.894;2022-09-09T01:31:53;100347.66;;;14.48;100.00
21781;BME280;52576;53.614;9.894;2022-09-09T01:32:57;100352.44;;;14.46;100.00
21781;BME280;52576;53.614;9.894;2022-09-09T01:34:02;100343.78;;;14.44;100.00
21781;BME280;52576;53.614;9.894;2022-09-09T01:35:07;100351.28;;;14.42;100.00
21781;BME280;52576;53.614;9.894;2022-09-09T01:36:20;100361.50;;;14.40;100.00
21781;BME280;52576;53.614;9.894;2022-09-09T01:37:25;100346.63;;;14.37;100.00
21781;BME280;52576;53.614;9.894;2022-09-09T01:38:30;100347.69;;;14.36;100.00
21781;BME280;52576;53.614;9.894;2022-09-09T01:39:35;100354.34;;;14.34;100.00
21781;BME280;52576;53.614;9.894;2022-09-09T01:40:42;100345.69;;;14.32;100.00
21781;BME280;52576;53.614;9.894;2022-09-09T01:41:46;100349.69;;;14.29;100.00
21781;BME280;52576;53.614;9.894;2022-09-09T01:42:52;100346.19;;;14.29;100.00
21781;BME280;52576;53.614;9.894;2022-09-09T01:43:55;100341.28;;;14.26;100.00
21781;BME280;52576;53.614;9.894;2022-09-09T01:45:00;100344.19;;;14.24;100.00
21781;BME280;52576;53.614;9.894;2022-09-09T01:46:03;100346.03;;;14.24;100.00
21781;BME280;52576;53.614;9.894;2022-09-09T01:47:08;100340.09;;;14.22;100.00
21781;BME280;52576;53.614;9.894;2022-09-09T01:48:24;100340.31;;;14.20;100.00
21781;BME280;52576;53.614;9.894;2022-09-09T01:49:36;100338.69;;;14.19;100.00
21781;BME280;52576;53.614;9.894;2022-09-09T01:50:46;100343.25;;;14.19;100.00
21781;BME280;52576;53.614;9.894;2022-09-09T01:51:51;100345.34;;;14.17;100.00
21781;BME280;52576;53.614;9.894;2022-09-09T01:52:59;100348.03;;;14.17;100.00
21781;BME280;52576;53.614;9.894;2022-09-09T01:54:07;100335.66;;;14.16;100.00
21781;BME280;52576;53.614;9.894;2022-09-09T01:55:09;100336.97;;;14.13;100.00
21781;BME280;52576;53.614;9.894;2022-09-09T01:56:31;100329.59;;;14.09;100.00
21781;BME280;52576;53.614;9.894;2022-09-09T01:57:42;100338.25;;;14.11;100.00
21781;BME280;52576;53.614;9.894;2022-09-09T01:59:07;100342.00;;;14.10;100.00
21781;BME280;52576;53.614;9.894;2022-09-09T02:00:17;100344.94;;;14.08;100.00
21781;BME280;52576;53.614;9.894;2022-09-09T02:01:29;100333.34;;;14.08;100.00
21781;BME280;52576;53.614;9.894;2022-09-09T02:02:44;100339.75;;;14.07;100.00
21781;BME280;52576;53.614;9.894;2022-09-09T02:03:57;100343.53;;;14.06;100.00
21781;BME280;52576;53.614;9.894;2022-09-09T02:05:11;100349.13;;;14.04;100.00
21781;BME280;52576;53.614;9.894;2022-09-09T02:06:26;100336.75;;;14.03;100.00
21781;BME280;52576;53.614;9.894;2022-09-09T02:07:39;100335.09;;;14.02;100.00
21781;BME280;52576;53.614;9.894;2022-09-09T02:09:00;100338.16;;;13.94;100.00
21781;BME280;52576;53.614;9.894;2022-09-09T02:10:10;100343.41;;;14.01;100.00
21781;BME280;52576;53.614;9.894;2022-09-09T02:11:23;100341.78;;;14.00;100.00
21781;BME280;52576;53.614;9.894;2022-09-09T02:12:46;100340.38;;;13.97;100.00
21781;BME280;52576;53.614;9.894;2022-09-09T02:13:52;100339.78;;;13.95;100.00
21781;BME280;52576;53.614;9.894;2022-09-09T02:15:03;100343.78;;;13.93;100.00
21781;BME280;52576;53.614;9.894;2022-09-09T02:16:22;100353.69;;;13.92;100.00
21781;BME280;52576;53.614;9.894;2022-09-09T02:17:27;100337.81;;;13.91;100.00
21781;BME280;52576;53.614;9.894;2022-09-09T02:18:47;100343.44;;;13.89;100.00
21781;BME280;52576;53.614;9.894;2022-09-09T02:19:57;100349.03;;;13.88;100.00
21781;BME280;52576;53.614;9.894;2022-09-09T02:21:15;100347.38;;;13.86;100.00
21781;BME280;52576;53.614;9.894;2022-09-09T02:22:22;100340.41;;;13.85;100.00
21781;BME280;52576;53.614;9.894;2022-09-09T02:23:27;100347.63;;;13.85;100.00
21781;BME280;52576;53.614;9.894;2022-09-09T02:24:34;100343.31;;;13.84;100.00
21781;BME280;52576;53.614;9.894;2022-09-09T02:25:48;100347.06;;;13.83;100.00
21781;BME280;52576;53.614;9.894;2022-09-09T02:26:57;100341.91;;;13.81;100.00
21781;BME280;52576;53.614;9.894;2022-09-09T02:28:06;100337.59;;;13.80;100.00
21781;BME280;52576;53.614;9.894;2022-09-09T02:29:15;100330.59;;;13.79;100.00
21781;BME280;52576;53.614;9.894;2022-09-09T02:30:19;100334.31;;;13.78;100.00
21781;BME280;52576;53.614;9.894;2022-09-09T02:31:27;100338.06;;;13.77;100.00
21781;BME280;52576;53.614;9.894;2022-09-09T02:32:36;100343.44;;;13.77;100.00
21781;BME280;52576;53.614;9.894;2022-09-09T02:33:47;100337.25;;;13.77;100.00
21781;BME280;52576;53.614;9.894;2022-09-09T02:34:55;100336.41;;;13.76;100.00
21781;BME280;52576;53.614;9.894;2022-09-09T02:35:59;100334.78;;;13.75;100.00
21781;BME280;52576;53.614;9.894;2022-09-09T02:37:06;100334.78;;;13.75;100.00
21781;BME280;52576;53.614;9.894;2022-09-09T02:38:15;100329.41;;;13.75;100.00
21781;BME280;52576;53.614;9.894;2022-09-09T02:39:29;100333.16;;;13.74;100.00
21781;BME280;52576;53.614;9.894;2022-09-09T02:40:32;100336.88;;;13.73;100.00
21781;BME280;52576;53.614;9.894;2022-09-09T02:41:39;100329.91;;;13.72;100.00
21781;BME280;52576;53.614;9.894;2022-09-09T02:42:45;100335.28;;;13.72;100.00
21781;BME280;52576;53.614;9.894;2022-09-09T02:43:49;100332.56;;;13.72;100.00
21781;BME280;52576;53.614;9.894;2022-09-09T02:44:53;100326.38;;;13.72;100.00
21781;BME280;52576;53.614;9.894;2022-09-09T02:46:03;100332.56;;;13.72;100.00
21781;BME280;52576;53.614;9.894;2022-09-09T02:47:21;100327.69;;;13.69;100.00
21781;BME280;52576;53.614;9.894;2022-09-09T02:48:33;100331.16;;;13.70;100.00
21781;BME280;52576;53.614;9.894;2022-09-09T02:49:46;100327.91;;;13.68;100.00
21781;BME280;52576;53.614;9.894;2022-09-09T02:50:57;100335.16;;;13.67;100.00
21781;BME280;52576;53.614;9.894;2022-09-09T02:52:07;100328.13;;;13.66;100.00
21781;BME280;52576;53.614;9.894;2022-09-09T02:53:17;100327.56;;;13.64;100.00
21781;BME280;52576;53.614;9.894;2022-09-09T02:54:27;100319.41;;;13.59;100.00
21781;BME280;52576;53.614;9.894;2022-09-09T02:55:39;100325.31;;;13.61;100.00
21781;BME280;52576;53.614;9.894;2022-09-09T02:56:49;100324.75;;;13.59;100.00
21781;BME280;52576;53.614;9.894;2022-09-09T02:57:56;100332.00;;;13.59;100.00
21781;BME280;52576;53.614;9.894;2022-09-09T02:59:04;100329.53;;;13.57;100.00
21781;BME280;52576;53.614;9.894;2022-09-09T03:00:09;100333.25;;;13.56;100.00
21781;BME280;52576;53.614;9.894;2022-09-09T03:01:13;100339.69;;;13.55;100.00
21781;BME280;52576;53.614;9.894;2022-09-09T03:02:16;100338.09;;;13.54;100.00
21781;BME280;52576;53.614;9.894;2022-09-09T03:03:25;100340.78;;;13.54;100.00
21781;BME280;52576;53.614;9.894;2022-09-09T03:04:27;100339.13;;;13.53;100.00
21781;BME280;52576;53.614;9.894;2022-09-09T03:05:31;100336.44;;;13.53;100.00
21781;BME280;52576;53.614;9.894;2022-09-09T03:06:33;100329.44;;;13.52;100.00
21781;BME280;52576;53.614;9.894;2022-09-09T03:07:48;100325.69;;;13.53;100.00
21781;BME280;52576;53.614;9.894;2022-09-09T03:08:52;100335.63;;;13.53;100.00
21781;BME280;52576;53.614;9.894;2022-09-09T03:09:59;100326.16;;;13.50;100.00
21781;BME280;52576;53.614;9.894;2022-09-09T03:11:02;100329.44;;;13.52;100.00
21781;BME280;52576;53.614;9.894;2022-09-09T03:12:08;100335.63;;;13.53;100.00
21781;BME280;52576;53.614;9.894;2022-09-09T03:13:11;100334.81;;;13.52;100.00
21781;BME280;52576;53.614;9.894;2022-09-09T03:14:18;100334.81;;;13.52;100.00
21781;BME280;52576;53.614;9.894;2022-09-09T03:15:24;100332.94;;;13.53;100.00
21781;BME280;52576;53.614;9.894;2022-09-09T03:16:30;100333.16;;;13.51;100.00
21781;BME280;52576;53.614;9.894;2022-09-09T03:17:33;100333.97;;;13.52;100.00
21781;BME280;52576;53.614;9.894;2022-09-09T03:18:37;100348.72;;;13.49;100.00
21781;BME280;52576;53.614;9.894;2022-09-09T03:19:39;100348.47;;;13.51;100.00
21781;BME280;52576;53.614;9.894;2022-09-09T03:20:43;100342.28;;;13.50;100.00
21781;BME280;52576;53.614;9.894;2022-09-09T03:21:45;100343.91;;;13.51;100.00
21781;BME280;52576;53.614;9.894;2022-09-09T03:22:49;100343.91;;;13.51;100.00
21781;BME280;52576;53.614;9.894;2022-09-09T03:23:51;100346.59;;;13.51;100.00
21781;BME280;52576;53.614;9.894;2022-09-09T03:24:54;100337.97;;;13.49;100.00
21781;BME280;52576;53.614;9.894;2022-09-09T03:25:56;100329.78;;;13.44;100.00
21781;BME280;52576;53.614;9.894;2022-09-09T03:27:09;100335.50;;;13.48;100.00
21781;BME280;52576;53.614;9.894;2022-09-09T03:28:13;100330.34;;;13.46;100.00
21781;BME280;52576;53.614;9.894;2022-09-09T03:29:18;100340.28;;;13.46;100.00
21781;BME280;52576;53.614;9.894;2022-09-09T03:30:21;100335.94;;;13.45;100.00
21781;BME280;52576;53.614;9.894;2022-09-09T03:31:24;100330.81;;;13.43;100.00
21781;BME280;52576;53.614;9.894;2022-09-09T03:32:27;100336.19;;;13.43;100.00
21781;BME280;52576;53.614;9.894;2022-09-09T03:33:31;100332.91;;;13.41;100.00
21781;BME280;52576;53.614;9.894;2022-09-09T03:34:34;100326.75;;;13.41;100.00
21781;BME280;52576;53.614;9.894;2022-09-09T03:35:37;100336.66;;;13.40;100.00
21781;BME280;52576;53.614;9.894;2022-09-09T03:36:39;100326.97;;;13.39;100.00
21781;BME280;52576;53.614;9.894;2022-09-09T03:37:43;100335.28;;;13.38;100.00
21781;BME280;52576;53.614;9.894;2022-09-09T03:38:46;100337.97;;;13.38;100.00
21781;BME280;52576;53.614;9.894;2022-09-09T03:39:49;100336.31;;;13.37;100.00
21781;BME280;52576;53.614;9.894;2022-09-09T03:40:55;100332.00;;;13.36;100.00
21781;BME280;52576;53.614;9.894;2022-09-09T03:41:59;100333.84;;;13.35;100.00
21781;BME280;52576;53.614;9.894;2022-09-09T03:43:05;100329.53;;;13.34;100.00
21781;BME280;52576;53.614;9.894;2022-09-09T03:44:08;100351.25;;;13.33;100.00
21781;BME280;52576;53.614;9.894;2022-09-09T03:45:15;100337.00;;;13.32;100.00
21781;BME280;52576;53.614;9.894;2022-09-09T03:46:18;100342.38;;;13.32;100.00
21781;BME280;52576;53.614;9.894;2022-09-09T03:47:21;100344.47;;;13.30;100.00
21781;BME280;52576;53.614;9.894;2022-09-09T03:48:29;100337.47;;;13.29;100.00
21781;BME280;52576;53.614;9.894;2022-09-09T03:49:31;100339.34;;;13.29;100.00
21781;BME280;52576;53.614;9.894;2022-09-09T03:50:35;100337.47;;;13.29;100.00
21781;BME280;52576;53.614;9.894;2022-09-09T03:51:37;100339.56;;;13.27;100.00
21781;BME280;52576;53.614;9.894;2022-09-09T03:52:41;100336.06;;;13.27;100.00
21781;BME280;52576;53.614;9.894;2022-09-09T03:53:50;100339.81;;;13.26;100.00
21781;BME280;52576;53.614;9.894;2022-09-09T03:54:53;100336.53;;;13.24;100.00
21781;BME280;52576;53.614;9.894;2022-09-09T03:55:57;100350.19;;;13.22;100.00
21781;BME280;52576;53.614;9.894;2022-09-09T03:57:02;100340.28;;;13.23;100.00
21781;BME280;52576;53.614;9.894;2022-09-09T03:58:05;100342.13;;;13.22;100.00
21781;BME280;52576;53.614;9.894;2022-09-09T03:59:08;100344.00;;;13.22;100.00
21781;BME280;52576;53.614;9.894;2022-09-09T04:00:11;100341.53;;;13.20;100.00
21781;BME280;52576;53.614;9.894;2022-09-09T04:01:18;100346.91;;;13.20;100.00
21781;BME280;52576;53.614;9.894;2022-09-09T04:02:21;100346.91;;;13.20;100.00
21781;BME280;52576;53.614;9.894;2022-09-09T04:03:25;100349.84;;;13.19;100.00
21781;BME280;52576;53.614;9.894;2022-09-09T04:04:29;100348.22;;;13.18;100.00
21781;BME280;52576;53.614;9.894;2022-09-09T04:05:32;100350.66;;;13.19;100.00
21781;BME280;52576;53.614;9.894;2022-09-09T04:06:35;100345.53;;;13.18;100.00
21781;BME280;52576;53.614;9.894;2022-09-09T04:07:38;100345.53;;;13.18;100.00
21781;BME280;52576;53.614;9.894;2022-09-09T04:08:41;100351.69;;;13.18;100.00
21781;BME280;52576;53.614;9.894;2022-09-09T04:09:44;100352.75;;;13.17;100.00
21781;BME280;52576;53.614;9.894;2022-09-09T04:10:49;100345.72;;;13.16;100.00
21781;BME280;52576;53.614;9.894;2022-09-09T04:11:52;100348.41;;;13.16;100.00
21781;BME280;52576;53.614;9.894;2022-09-09T04:12:55;100337.91;;;13.15;100.00
21781;BME280;52576;53.614;9.894;2022-09-09T04:13:58;100346.78;;;13.15;100.00
21781;BME280;52576;53.614;9.894;2022-09-09T04:15:00;100350.28;;;13.16;100.00
21781;BME280;52576;53.614;9.894;2022-09-09T04:16:05;100349.72;;;13.14;100.00
21781;BME280;52576;53.614;9.894;2022-09-09T04:17:10;100346.19;;;13.13;100.00
21781;BME280;52576;53.614;9.894;2022-09-09T04:18:13;100347.03;;;13.14;100.00
21781;BME280;52576;53.614;9.894;2022-09-09T04:19:20;100348.88;;;13.13;100.00
21781;BME280;52576;53.614;9.894;2022-09-09T04:20:24;100354.25;;;13.13;100.00
21781;BME280;52576;53.614;9.894;2022-09-09T04:21:26;100349.94;;;13.12;100.00
21781;BME280;52576;53.614;9.894;2022-09-09T04:22:30;100354.25;;;13.13;100.00
21781;BME280;52576;53.614;9.894;2022-09-09T04:23:34;100362.31;;;13.13;100.00
21781;BME280;52576;53.614;9.894;2022-09-09T04:24:38;100355.31;;;13.12;100.00
21781;BME280;52576;53.614;9.894;2022-09-09T04:25:46;100355.31;;;13.12;100.00
21781;BME280;52576;53.614;9.894;2022-09-09T04:26:49;100359.63;;;13.13;100.00
21781;BME280;52576;53.614;9.894;2022-09-09T04:27:53;100358.81;;;13.13;100.00
21781;BME280;52576;53.614;9.894;2022-09-09T04:28:56;100356.94;;;13.13;100.00
21781;BME280;52576;53.614;9.894;2022-09-09T04:29:59;100359.63;;;13.13;100.00
21781;BME280;52576;53.614;9.894;2022-09-09T04:31:05;100355.31;;;13.12;100.00
21781;BME280;52576;53.614;9.894;2022-09-09T04:32:11;100361.50;;;13.13;100.00
21781;BME280;52576;53.614;9.894;2022-09-09T04:33:15;100366.06;;;13.12;100.00
21781;BME280;52576;53.614;9.894;2022-09-09T04:34:19;100359.03;;;13.11;100.00
21781;BME280;52576;53.614;9.894;2022-09-09T04:35:23;100363.59;;;13.11;100.00
21781;BME280;52576;53.614;9.894;2022-09-09T04:36:25;100362.75;;;13.10;100.00
21781;BME280;52576;53.614;9.894;2022-09-09T04:37:32;100357.41;;;13.10;100.00
21781;BME280;52576;53.614;9.894;2022-09-09T04:38:35;100358.69;;;13.08;100.00
21781;BME280;52576;53.614;9.894;2022-09-09T04:39:38;100360.09;;;13.10;100.00
21781;BME280;52576;53.614;9.894;2022-09-09T04:40:42;100357.41;;;13.10;100.00
21781;BME280;52576;53.614;9.894;2022-09-09T04:41:45;100354.72;;;13.10;100.00
21781;BME280;52576;53.614;9.894;2022-09-09T04:42:47;100367.06;;;13.11;100.00
21781;BME280;52576;53.614;9.894;2022-09-09T04:43:52;100366.28;;;13.11;100.00
21781;BME280;52576;53.614;9.894;2022-09-09T04:44:56;100360.91;;;13.11;100.00
21781;BME280;52576;53.614;9.894;2022-09-09T04:45:59;100359.84;;;13.12;100.00
21781;BME280;52576;53.614;9.894;2022-09-09T04:47:01;100366.88;;;13.13;100.00
21781;BME280;52576;53.614;9.894;2022-09-09T04:48:06;100368.72;;;13.12;100.00
21781;BME280;52576;53.614;9.894;2022-09-09T04:49:08;100371.19;;;13.14;100.00
21781;BME280;52576;53.614;9.894;2022-09-09T04:50:17;100369.31;;;13.14;100.00
21781;BME280;52576;53.614;9.894;2022-09-09T04:51:21;100365.59;;;13.15;100.00
21781;BME280;52576;53.614;9.894;2022-09-09T04:52:25;100365.59;;;13.15;100.00
21781;BME280;52576;53.614;9.894;2022-09-09T04:53:27;100368.03;;;13.17;100.00
21781;BME280;52576;53.614;9.894;2022-09-09T04:54:30;100371.53;;;13.17;100.00
21781;BME280;52576;53.614;9.894;2022-09-09T04:55:33;100384.75;;;13.19;100.00
21781;BME280;52576;53.614;9.894;2022-09-09T04:56:37;100371.09;;;13.20;100.00
21781;BME280;52576;53.614;9.894;2022-09-09T04:57:39;100375.63;;;13.20;100.00
21781;BME280;52576;53.614;9.894;2022-09-09T04:58:43;100379.72;;;13.22;100.00
21781;BME280;52576;53.614;9.894;2022-09-09T04:59:46;100380.31;;;13.24;100.00
21781;BME280;52576;53.614;9.894;2022-09-09T05:00:49;100372.25;;;13.24;100.00
21781;BME280;52576;53.614;9.894;2022-09-09T05:01:54;100369.00;;;13.22;100.00
21781;BME280;52576;53.614;9.894;2022-09-09T05:02:57;100370.38;;;13.25;100.00
21781;BME280;52576;53.614;9.894;2022-09-09T05:04:01;100377.41;;;13.26;100.00
21781;BME280;52576;53.614;9.894;2022-09-09T05:05:06;100379.25;;;13.25;100.00
21781;BME280;52576;53.614;9.894;2022-09-09T05:06:10;100377.16;;;13.27;100.00
21781;BME280;52576;53.614;9.894;2022-09-09T05:07:13;100369.13;;;13.27;100.00
21781;BME280;52576;53.614;9.894;2022-09-09T05:08:16;100367.47;;;13.26;100.00
21781;BME280;52576;53.614;9.894;2022-09-09T05:09:19;100371.78;;;13.27;100.00
21781;BME280;52576;53.614;9.894;2022-09-09T05:10:22;100368.06;;;13.28;100.00
21781;BME280;52576;53.614;9.894;2022-09-09T05:11:26;100378.78;;;13.28;100.00
21781;BME280;52576;53.614;9.894;2022-09-09T05:12:34;100370.75;;;13.28;100.00
21781;BME280;52576;53.614;9.894;2022-09-09T05:13:37;100368.06;;;13.28;100.00
21781;BME280;52576;53.614;9.894;2022-09-09T05:14:42;100376.09;;;13.28;100.00
21781;BME280;52576;53.614;9.894;2022-09-09T05:15:51;100381.25;;;13.30;100.00
21781;BME280;52576;53.614;9.894;2022-09-09T05:16:54;100378.56;;;13.30;100.00
21781;BME280;52576;53.614;9.894;2022-09-09T05:17:58;100368.66;;;13.30;100.00
21781;BME280;52576;53.614;9.894;2022-09-09T05:19:05;100377.53;;;13.31;100.00
21781;BME280;52576;53.614;9.894;2022-09-09T05:20:19;100379.38;;;13.30;100.00
21781;BME280;52576;53.614;9.894;2022-09-09T05:21:22;100382.06;;;13.30;100.00
21781;BME280;52576;53.614;9.894;2022-09-09T05:22:26;100384.75;;;13.30;100.00
21781;BME280;52576;53.614;9.894;2022-09-09T05:23:28;100386.38;;;13.31;100.00
21781;BME280;52576;53.614;9.894;2022-09-09T05:24:31;100382.06;;;13.30;100.00
21781;BME280;52576;53.614;9.894;2022-09-09T05:25:36;100379.38;;;13.30;100.00
21781;BME280;52576;53.614;9.894;2022-09-09T05:26:43;100384.75;;;13.30;100.00
21781;BME280;52576;53.614;9.894;2022-09-09T05:27:45;100387.44;;;13.30;100.00
21781;BME280;52576;53.614;9.894;2022-09-09T05:28:49;100382.91;;;13.31;100.00
21781;BME280;52576;53.614;9.894;2022-09-09T05:29:51;100387.44;;;13.30;100.00
21781;BME280;52576;53.614;9.894;2022-09-09T05:30:56;100382.06;;;13.30;100.00
21781;BME280;52576;53.614;9.894;2022-09-09T05:31:59;100387.44;;;13.30;100.00
21781;BME280;52576;53.614;9.894;2022-09-09T05:33:02;100380.44;;;13.29;100.00
21781;BME280;52576;53.614;9.894;2022-09-09T05:34:06;100381.25;;;13.30;100.00
21781;BME280;52576;53.614;9.894;2022-09-09T05:35:09;100390.13;;;13.30;100.00
21781;BME280;52576;53.614;9.894;2022-09-09T05:36:14;100389.06;;;13.31;100.00
21781;BME280;52576;53.614;9.894;2022-09-09T05:37:19;100389.66;;;13.33;100.00
21781;BME280;52576;53.614;9.894;2022-09-09T05:38:22;100377.28;;;13.32;100.00
21781;BME280;52576;53.614;9.894;2022-09-09T05:39:35;100389.66;;;13.33;100.00
21781;BME280;52576;53.614;9.894;2022-09-09T05:40:38;100394.81;;;13.35;100.00
21781;BME280;52576;53.614;9.894;2022-09-09T05:41:44;100386.75;;;13.35;100.00
21781;BME280;52576;53.614;9.894;2022-09-09T05:42:46;100389.44;;;13.35;100.00
21781;BME280;52576;53.614;9.894;2022-09-09T05:43:49;100399.94;;;13.36;100.00
21781;BME280;52576;53.614;9.894;2022-09-09T05:44:52;100392.72;;;13.37;100.00
21781;BME280;52576;53.614;9.894;2022-09-09T05:46:01;100402.19;;;13.39;100.00
21781;BME280;52576;53.614;9.894;2022-09-09T05:47:04;100405.44;;;13.41;100.00